sensor_id;sensor_type;location;lat;lon;timestamp;P1;durP1;ratioP1;P2;durP2;ratioP2
23115;SDS011;11727;52.134;5.052;2022-11-15T00:00:50;33.95;;;11.60;;
23115;SDS011;11727;52.134;5.052;2022-11-15T00:03:16;32.28;;;11.93;;
23115;SDS011;11727;52.134;5.052;2022-11-15T00:05:43;27.90;;;10.47;;
23115;SDS011;11727;52.134;5.052;2022-11-15T00:08:09;31.35;;;10.75;;
23115;SDS011;11727;52.134;5.052;2022-11-15T00:10:35;33.35;;;12.52;;
23115;SDS011;11727;52.134;5.052;2022-11-15T00:13:05;28.70;;;11.30;;
23115;SDS011;11727;52.134;5.052;2022-11-15T00:15:35;26.75;;;11.07;;
23115;SDS011;11727;52.134;5.052;2022-11-15T00:18:02;27.90;;;9.37;;
23115;SDS011;11727;52.134;5.052;2022-11-15T00:20:28;37.95;;;13.25;;
23115;SDS011;11727;52.134;5.052;2022-11-15T00:22:54;31.45;;;10.48;;
23115;SDS011;11727;52.134;5.052;2022-11-15T00:25:20;39.80;;;11.68;;
23115;SDS011;11727;52.134;5.052;2022-11-15T00:27:45;30.27;;;10.60;;
23115;SDS011;11727;52.134;5.052;2022-11-15T00:30:11;28.02;;;10.13;;
23115;SDS011;11727;52.134;5.052;2022-11-15T00:32:37;27.73;;;11.38;;
23115;SDS011;11727;52.134;5.052;2022-11-15T00:35:03;30.80;;;11.10;;
23115;SDS011;11727;52.134;5.052;2022-11-15T00:37:29;30.08;;;12.40;;
23115;SDS011;11727;52.134;5.052;2022-11-15T00:39:54;24.63;;;11.30;;
23115;SDS011;11727;52.134;5.052;2022-11-15T00:42:20;31.52;;;12.00;;
23115;SDS011;11727;52.134;5.052;2022-11-15T00:44:45;32.20;;;12.15;;
23115;SDS011;11727;52.134;5.052;2022-11-15T00:47:11;40.03;;;11.82;;
23115;SDS011;11727;52.134;5.052;2022-11-15T00:49:36;40.95;;;14.75;;
23115;SDS011;11727;52.134;5.052;2022-11-15T00:52:02;37.03;;;11.77;;
23115;SDS011;11727;52.134;5.052;2022-11-15T00:54:27;34.38;;;11.55;;
23115;SDS011;11727;52.134;5.052;2022-11-15T00:56:53;26.35;;;10.43;;
23115;SDS011;11727;52.134;5.052;2022-11-15T00:59:19;31.63;;;10.52;;
23115;SDS011;11727;52.134;5.052;2022-11-15T01:01:44;28.77;;;10.68;;
23115;SDS011;11727;52.134;5.052;2022-11-15T01:04:10;26.83;;;9.43;;
23115;SDS011;11727;52.134;5.052;2022-11-15T01:06:35;32.72;;;11.50;;
23115;SDS011;11727;52.134;5.052;2022-11-15T01:09:01;31.33;;;10.02;;
23115;SDS011;11727;52.134;5.052;2022-11-15T01:11:26;45.50;;;12.70;;
23115;SDS011;11727;52.134;5.052;2022-11-15T01:13:52;38.88;;;12.80;;
23115;SDS011;11727;52.134;5.052;2022-11-15T01:16:19;36.60;;;13.03;;
23115;SDS011;11727;52.134;5.052;2022-11-15T01:18:45;27.05;;;10.02;;
23115;SDS011;11727;52.134;5.052;2022-11-15T01:21:14;47.05;;;12.10;;
23115;SDS011;11727;52.134;5.052;2022-11-15T01:23:42;38.00;;;11.48;;
23115;SDS011;11727;52.134;5.052;2022-11-15T01:26:09;34.22;;;11.38;;
23115;SDS011;11727;52.134;5.052;2022-11-15T01:28:38;34.10;;;11.48;;
23115;SDS011;11727;52.134;5.052;2022-11-15T01:31:14;38.38;;;12.18;;
23115;SDS011;11727;52.134;5.052;2022-11-15T01:33:42;27.08;;;10.95;;
23115;SDS011;11727;52.134;5.052;2022-11-15T01:36:10;40.13;;;11.60;;
23115;SDS011;11727;52.134;5.052;2022-11-15T01:38:37;40.20;;;11.40;;
23115;SDS011;11727;52.134;5.052;2022-11-15T01:41:03;34.28;;;12.52;;
23115;SDS011;11727;52.134;5.052;2022-11-15T01:43:33;28.75;;;9.80;;
23115;SDS011;11727;52.134;5.052;2022-11-15T01:46:02;28.75;;;10.50;;
23115;SDS011;11727;52.134;5.052;2022-11-15T01:48:49;34.00;;;12.02;;
23115;SDS011;11727;52.134;5.052;2022-11-15T01:51:17;32.58;;;11.93;;
23115;SDS011;11727;52.134;5.052;2022-11-15T01:53:46;32.70;;;10.90;;
23115;SDS011;11727;52.134;5.052;2022-11-15T01:56:15;36.85;;;11.68;;
23115;SDS011;11727;52.134;5.052;2022-11-15T01:58:44;28.42;;;10.40;;
23115;SDS011;11727;52.134;5.052;2022-11-15T02:01:12;28.88;;;13.25;;
23115;SDS011;11727;52.134;5.052;2022-11-15T02:06:22;31.35;;;11.20;;
23115;SDS011;11727;52.134;5.052;2022-11-15T02:08:47;33.38;;;12.52;;
23115;SDS011;11727;52.134;5.052;2022-11-15T02:11:14;38.30;;;12.17;;
23115;SDS011;11727;52.134;5.052;2022-11-15T02:13:40;33.38;;;12.52;;
23115;SDS011;11727;52.134;5.052;2022-11-15T02:16:27;36.03;;;12.13;;
23115;SDS011;11727;52.134;5.052;2022-11-15T02:19:28;36.70;;;12.80;;
23115;SDS011;11727;52.134;5.052;2022-11-15T02:22:10;36.10;;;13.35;;
23115;SDS011;11727;52.134;5.052;2022-11-15T02:24:54;37.70;;;12.27;;
23115;SDS011;11727;52.134;5.052;2022-11-15T02:27:38;29.73;;;12.90;;
23115;SDS011;11727;52.134;5.052;2022-11-15T02:30:28;40.03;;;13.07;;
23115;SDS011;11727;52.134;5.052;2022-11-15T02:33:31;29.60;;;12.35;;
23115;SDS011;11727;52.134;5.052;2022-11-15T02:36:05;30.00;;;10.70;;
23115;SDS011;11727;52.134;5.052;2022-11-15T02:41:30;34.42;;;12.93;;
23115;SDS011;11727;52.134;5.052;2022-11-15T02:44:17;32.88;;;11.45;;
23115;SDS011;11727;52.134;5.052;2022-11-15T02:46:59;38.95;;;11.95;;
23115;SDS011;11727;52.134;5.052;2022-11-15T02:49:37;35.72;;;13.15;;
23115;SDS011;11727;52.134;5.052;2022-11-15T02:52:22;31.85;;;12.07;;
23115;SDS011;11727;52.134;5.052;2022-11-15T02:54:52;39.13;;;12.02;;
23115;SDS011;11727;52.134;5.052;2022-11-15T02:57:20;34.75;;;11.50;;
23115;SDS011;11727;52.134;5.052;2022-11-15T03:00:05;34.15;;;12.43;;
23115;SDS011;11727;52.134;5.052;2022-11-15T03:02:46;26.55;;;11.45;;
23115;SDS011;11727;52.134;5.052;2022-11-15T03:11:21;45.85;;;13.48;;
23115;SDS011;11727;52.134;5.052;2022-11-15T03:16:46;38.17;;;13.00;;
23115;SDS011;11727;52.134;5.052;2022-11-15T03:19:44;24.75;;;11.02;;
23115;SDS011;11727;52.134;5.052;2022-11-15T03:22:14;33.42;;;12.07;;
23115;SDS011;11727;52.134;5.052;2022-11-15T03:24:43;25.00;;;10.68;;
23115;SDS011;11727;52.134;5.052;2022-11-15T03:27:12;34.20;;;12.05;;
23115;SDS011;11727;52.134;5.052;2022-11-15T03:29:46;26.23;;;11.60;;
23115;SDS011;11727;52.134;5.052;2022-11-15T03:32:20;34.70;;;12.20;;
23115;SDS011;11727;52.134;5.052;2022-11-15T03:37:41;28.38;;;11.38;;
23115;SDS011;11727;52.134;5.052;2022-11-15T03:40:12;25.33;;;10.50;;
23115;SDS011;11727;52.134;5.052;2022-11-15T03:45:14;24.65;;;10.68;;
23115;SDS011;11727;52.134;5.052;2022-11-15T03:47:54;30.60;;;12.02;;
23115;SDS011;11727;52.134;5.052;2022-11-15T03:50:26;29.30;;;11.07;;
23115;SDS011;11727;52.134;5.052;2022-11-15T03:52:53;26.45;;;9.80;;
23115;SDS011;11727;52.134;5.052;2022-11-15T03:55:20;25.23;;;10.30;;
23115;SDS011;11727;52.134;5.052;2022-11-15T03:57:47;23.27;;;10.50;;
23115;SDS011;11727;52.134;5.052;2022-11-15T04:00:15;25.60;;;9.95;;
23115;SDS011;11727;52.134;5.052;2022-11-15T04:02:42;22.83;;;11.25;;
23115;SDS011;11727;52.134;5.052;2022-11-15T04:05:07;28.70;;;11.30;;
23115;SDS011;11727;52.134;5.052;2022-11-15T04:07:33;26.33;;;9.93;;
23115;SDS011;11727;52.134;5.052;2022-11-15T04:09:59;25.08;;;10.68;;
23115;SDS011;11727;52.134;5.052;2022-11-15T04:12:27;19.38;;;9.52;;
23115;SDS011;11727;52.134;5.052;2022-11-15T04:14:58;24.27;;;9.60;;
23115;SDS011;11727;52.134;5.052;2022-11-15T04:17:38;22.40;;;9.95;;
23115;SDS011;11727;52.134;5.052;2022-11-15T04:20:05;20.98;;;9.43;;
23115;SDS011;11727;52.134;5.052;2022-11-15T04:22:52;19.85;;;9.40;;
23115;SDS011;11727;52.134;5.052;2022-11-15T04:25:37;19.30;;;9.25;;
23115;SDS011;11727;52.134;5.052;2022-11-15T04:28:03;18.38;;;9.23;;
23115;SDS011;11727;52.134;5.052;2022-11-15T04:30:29;25.13;;;9.95;;
23115;SDS011;11727;52.134;5.052;2022-11-15T04:32:54;19.50;;;9.15;;
23115;SDS011;11727;52.134;5.052;2022-11-15T04:35:20;19.50;;;9.80;;
23115;SDS011;11727;52.134;5.052;2022-11-15T04:37:46;22.27;;;10.10;;
23115;SDS011;11727;52.134;5.052;2022-11-15T04:40:11;20.27;;;9.43;;
23115;SDS011;11727;52.134;5.052;2022-11-15T04:42:37;16.38;;;8.20;;
23115;SDS011;11727;52.134;5.052;2022-11-15T04:45:02;21.48;;;9.05;;
23115;SDS011;11727;52.134;5.052;2022-11-15T04:47:28;26.40;;;9.55;;
23115;SDS011;11727;52.134;5.052;2022-11-15T04:49:54;18.70;;;8.77;;
23115;SDS011;11727;52.134;5.052;2022-11-15T04:52:20;17.95;;;8.95;;
23115;SDS011;11727;52.134;5.052;2022-11-15T04:54:45;15.93;;;8.75;;
23115;SDS011;11727;52.134;5.052;2022-11-15T04:57:11;19.92;;;8.43;;
23115;SDS011;11727;52.134;5.052;2022-11-15T04:59:36;19.60;;;8.32;;
23115;SDS011;11727;52.134;5.052;2022-11-15T05:02:02;19.90;;;8.15;;
23115;SDS011;11727;52.134;5.052;2022-11-15T05:04:28;16.33;;;8.15;;
23115;SDS011;11727;52.134;5.052;2022-11-15T05:06:53;15.35;;;7.10;;
23115;SDS011;11727;52.134;5.052;2022-11-15T05:09:19;17.90;;;8.70;;
23115;SDS011;11727;52.134;5.052;2022-11-15T05:11:45;21.42;;;9.13;;
23115;SDS011;11727;52.134;5.052;2022-11-15T05:14:12;18.50;;;9.45;;
23115;SDS011;11727;52.134;5.052;2022-11-15T05:16:38;19.23;;;7.95;;
23115;SDS011;11727;52.134;5.052;2022-11-15T05:19:04;21.80;;;8.48;;
23115;SDS011;11727;52.134;5.052;2022-11-15T05:21:30;13.85;;;7.03;;
23115;SDS011;11727;52.134;5.052;2022-11-15T05:23:56;19.70;;;8.43;;
23115;SDS011;11727;52.134;5.052;2022-11-15T05:26:22;16.08;;;8.32;;
23115;SDS011;11727;52.134;5.052;2022-11-15T05:28:51;15.93;;;7.55;;
23115;SDS011;11727;52.134;5.052;2022-11-15T05:31:21;18.63;;;6.82;;
23115;SDS011;11727;52.134;5.052;2022-11-15T05:33:48;17.33;;;7.32;;
23115;SDS011;11727;52.134;5.052;2022-11-15T05:36:36;16.25;;;7.63;;
23115;SDS011;11727;52.134;5.052;2022-11-15T05:39:03;19.23;;;7.72;;
23115;SDS011;11727;52.134;5.052;2022-11-15T05:41:37;17.15;;;7.47;;
23115;SDS011;11727;52.134;5.052;2022-11-15T05:44:13;14.30;;;7.75;;
23115;SDS011;11727;52.134;5.052;2022-11-15T05:46:42;15.20;;;7.38;;
23115;SDS011;11727;52.134;5.052;2022-11-15T05:49:10;12.77;;;6.82;;
23115;SDS011;11727;52.134;5.052;2022-11-15T05:51:39;17.85;;;6.80;;
23115;SDS011;11727;52.134;5.052;2022-11-15T05:54:06;20.30;;;8.18;;
23115;SDS011;11727;52.134;5.052;2022-11-15T05:56:32;17.23;;;8.02;;
23115;SDS011;11727;52.134;5.052;2022-11-15T05:58:58;12.48;;;6.85;;
23115;SDS011;11727;52.134;5.052;2022-11-15T06:01:24;14.63;;;7.28;;
23115;SDS011;11727;52.134;5.052;2022-11-15T06:03:51;16.77;;;6.95;;
23115;SDS011;11727;52.134;5.052;2022-11-15T06:06:16;15.00;;;8.60;;
23115;SDS011;11727;52.134;5.052;2022-11-15T06:08:42;15.90;;;7.28;;
23115;SDS011;11727;52.134;5.052;2022-11-15T06:11:08;14.90;;;6.80;;
23115;SDS011;11727;52.134;5.052;2022-11-15T06:13:34;12.68;;;7.35;;
23115;SDS011;11727;52.134;5.052;2022-11-15T06:16:00;13.68;;;7.15;;
23115;SDS011;11727;52.134;5.052;2022-11-15T06:18:25;15.05;;;7.47;;
23115;SDS011;11727;52.134;5.052;2022-11-15T06:20:51;11.35;;;6.32;;
23115;SDS011;11727;52.134;5.052;2022-11-15T06:23:17;17.50;;;7.43;;
23115;SDS011;11727;52.134;5.052;2022-11-15T06:25:43;18.35;;;6.10;;
23115;SDS011;11727;52.134;5.052;2022-11-15T06:28:08;18.48;;;8.23;;
23115;SDS011;11727;52.134;5.052;2022-11-15T06:30:34;14.10;;;7.07;;
23115;SDS011;11727;52.134;5.052;2022-11-15T06:33:00;14.63;;;6.85;;
23115;SDS011;11727;52.134;5.052;2022-11-15T06:35:27;19.50;;;8.05;;
23115;SDS011;11727;52.134;5.052;2022-11-15T06:37:53;18.90;;;8.43;;
23115;SDS011;11727;52.134;5.052;2022-11-15T06:40:19;14.45;;;7.40;;
23115;SDS011;11727;52.134;5.052;2022-11-15T06:42:45;17.20;;;6.50;;
23115;SDS011;11727;52.134;5.052;2022-11-15T06:45:10;15.63;;;7.38;;
23115;SDS011;11727;52.134;5.052;2022-11-15T06:47:43;15.88;;;6.47;;
23115;SDS011;11727;52.134;5.052;2022-11-15T06:50:12;13.90;;;7.25;;
23115;SDS011;11727;52.134;5.052;2022-11-15T06:52:38;20.83;;;7.32;;
23115;SDS011;11727;52.134;5.052;2022-11-15T06:55:03;16.10;;;7.90;;
23115;SDS011;11727;52.134;5.052;2022-11-15T06:57:29;13.73;;;6.53;;
23115;SDS011;11727;52.134;5.052;2022-11-15T06:59:55;12.70;;;6.70;;
23115;SDS011;11727;52.134;5.052;2022-11-15T07:02:20;14.70;;;7.10;;
23115;SDS011;11727;52.134;5.052;2022-11-15T07:04:46;13.95;;;7.38;;
23115;SDS011;11727;52.134;5.052;2022-11-15T07:07:12;12.43;;;6.80;;
23115;SDS011;11727;52.134;5.052;2022-11-15T07:09:37;15.45;;;6.50;;
23115;SDS011;11727;52.134;5.052;2022-11-15T07:12:03;17.83;;;6.97;;
23115;SDS011;11727;52.134;5.052;2022-11-15T07:14:28;11.50;;;6.72;;
23115;SDS011;11727;52.134;5.052;2022-11-15T07:16:54;20.20;;;7.65;;
23115;SDS011;11727;52.134;5.052;2022-11-15T07:19:19;12.32;;;6.80;;
23115;SDS011;11727;52.134;5.052;2022-11-15T07:21:45;17.10;;;6.93;;
23115;SDS011;11727;52.134;5.052;2022-11-15T07:24:11;15.55;;;6.88;;
23115;SDS011;11727;52.134;5.052;2022-11-15T07:26:37;19.98;;;8.55;;
23115;SDS011;11727;52.134;5.052;2022-11-15T07:29:02;18.70;;;7.03;;
23115;SDS011;11727;52.134;5.052;2022-11-15T07:31:28;20.77;;;7.43;;
23115;SDS011;11727;52.134;5.052;2022-11-15T07:33:53;15.27;;;6.60;;
23115;SDS011;11727;52.134;5.052;2022-11-15T07:36:19;14.05;;;6.03;;
23115;SDS011;11727;52.134;5.052;2022-11-15T07:38:45;12.90;;;6.60;;
23115;SDS011;11727;52.134;5.052;2022-11-15T07:41:10;16.48;;;6.55;;
23115;SDS011;11727;52.134;5.052;2022-11-15T07:43:36;12.73;;;6.55;;
23115;SDS011;11727;52.134;5.052;2022-11-15T07:46:05;17.35;;;6.60;;
23115;SDS011;11727;52.134;5.052;2022-11-15T07:48:34;12.25;;;6.20;;
23115;SDS011;11727;52.134;5.052;2022-11-15T07:51:00;17.30;;;6.20;;
23115;SDS011;11727;52.134;5.052;2022-11-15T07:53:26;9.40;;;5.70;;
23115;SDS011;11727;52.134;5.052;2022-11-15T07:55:51;15.55;;;6.07;;
23115;SDS011;11727;52.134;5.052;2022-11-15T07:58:18;13.50;;;6.17;;
23115;SDS011;11727;52.134;5.052;2022-11-15T08:00:44;9.75;;;4.72;;
23115;SDS011;11727;52.134;5.052;2022-11-15T08:03:11;16.17;;;6.97;;
23115;SDS011;11727;52.134;5.052;2022-11-15T08:05:38;14.90;;;5.60;;
23115;SDS011;11727;52.134;5.052;2022-11-15T08:08:06;10.63;;;4.85;;
23115;SDS011;11727;52.134;5.052;2022-11-15T08:10:33;11.13;;;5.75;;
23115;SDS011;11727;52.134;5.052;2022-11-15T08:13:03;10.80;;;5.05;;
23115;SDS011;11727;52.134;5.052;2022-11-15T08:15:30;12.88;;;5.25;;
23115;SDS011;11727;52.134;5.052;2022-11-15T08:17:58;13.55;;;5.78;;
23115;SDS011;11727;52.134;5.052;2022-11-15T08:20:25;10.98;;;5.28;;
23115;SDS011;11727;52.134;5.052;2022-11-15T08:22:54;15.32;;;5.82;;
23115;SDS011;11727;52.134;5.052;2022-11-15T08:25:25;9.18;;;4.30;;
23115;SDS011;11727;52.134;5.052;2022-11-15T08:27:56;7.88;;;4.35;;
23115;SDS011;11727;52.134;5.052;2022-11-15T08:30:22;8.55;;;4.60;;
23115;SDS011;11727;52.134;5.052;2022-11-15T08:32:49;8.35;;;4.32;;
23115;SDS011;11727;52.134;5.052;2022-11-15T08:35:16;9.50;;;4.63;;
23115;SDS011;11727;52.134;5.052;2022-11-15T08:37:42;10.68;;;3.63;;
23115;SDS011;11727;52.134;5.052;2022-11-15T08:40:08;8.75;;;4.35;;
23115;SDS011;11727;52.134;5.052;2022-11-15T08:42:34;10.40;;;4.38;;
23115;SDS011;11727;52.134;5.052;2022-11-15T08:45:00;11.02;;;3.72;;
23115;SDS011;11727;52.134;5.052;2022-11-15T08:47:26;14.93;;;4.03;;
23115;SDS011;11727;52.134;5.052;2022-11-15T08:49:52;5.95;;;3.53;;
23115;SDS011;11727;52.134;5.052;2022-11-15T08:52:18;9.60;;;3.67;;
23115;SDS011;11727;52.134;5.052;2022-11-15T08:54:43;10.30;;;3.33;;
23115;SDS011;11727;52.134;5.052;2022-11-15T08:57:09;16.95;;;3.83;;
23115;SDS011;11727;52.134;5.052;2022-11-15T08:59:35;10.85;;;3.58;;
23115;SDS011;11727;52.134;5.052;2022-11-15T09:02:01;5.25;;;3.15;;
23115;SDS011;11727;52.134;5.052;2022-11-15T09:04:27;10.52;;;3.47;;
23115;SDS011;11727;52.134;5.052;2022-11-15T09:06:53;4.72;;;2.40;;
23115;SDS011;11727;52.134;5.052;2022-11-15T09:09:18;6.28;;;2.90;;
23115;SDS011;11727;52.134;5.052;2022-11-15T09:11:44;7.70;;;3.10;;
23115;SDS011;11727;52.134;5.052;2022-11-15T09:14:10;8.57;;;3.65;;
23115;SDS011;11727;52.134;5.052;2022-11-15T09:16:37;6.38;;;3.45;;
23115;SDS011;11727;52.134;5.052;2022-11-15T09:19:03;4.88;;;2.80;;
23115;SDS011;11727;52.134;5.052;2022-11-15T09:21:29;5.70;;;3.33;;
23115;SDS011;11727;52.134;5.052;2022-11-15T09:23:54;8.27;;;3.58;;
23115;SDS011;11727;52.134;5.052;2022-11-15T09:26:20;9.20;;;3.85;;
23115;SDS011;11727;52.134;5.052;2022-11-15T09:28:46;7.68;;;3.65;;
23115;SDS011;11727;52.134;5.052;2022-11-15T09:31:11;5.90;;;3.47;;
23115;SDS011;11727;52.134;5.052;2022-11-15T09:33:37;7.30;;;2.95;;
23115;SDS011;11727;52.134;5.052;2022-11-15T09:36:04;9.23;;;3.17;;
23115;SDS011;11727;52.134;5.052;2022-11-15T09:38:31;4.90;;;2.67;;
23115;SDS011;11727;52.134;5.052;2022-11-15T09:43:57;11.32;;;3.08;;
23115;SDS011;11727;52.134;5.052;2022-11-15T09:46:46;8.65;;;3.42;;
23115;SDS011;11727;52.134;5.052;2022-11-15T09:49:21;9.98;;;2.90;;
23115;SDS011;11727;52.134;5.052;2022-11-15T09:51:48;7.20;;;3.42;;
23115;SDS011;11727;52.134;5.052;2022-11-15T09:54:29;6.75;;;3.28;;
23115;SDS011;11727;52.134;5.052;2022-11-15T09:57:09;4.15;;;2.50;;
23115;SDS011;11727;52.134;5.052;2022-11-15T09:59:55;7.28;;;2.40;;
23115;SDS011;11727;52.134;5.052;2022-11-15T10:05:22;12.90;;;2.85;;
23115;SDS011;11727;52.134;5.052;2022-11-15T10:07:55;3.90;;;2.38;;
23115;SDS011;11727;52.134;5.052;2022-11-15T10:10:43;4.68;;;2.15;;
23115;SDS011;11727;52.134;5.052;2022-11-15T10:13:30;3.78;;;2.15;;
23115;SDS011;11727;52.134;5.052;2022-11-15T10:16:46;4.82;;;2.10;;
23115;SDS011;11727;52.134;5.052;2022-11-15T10:25:00;9.45;;;2.03;;
23115;SDS011;11727;52.134;5.052;2022-11-15T10:27:42;3.22;;;1.70;;
23115;SDS011;11727;52.134;5.052;2022-11-15T10:30:11;6.88;;;2.17;;
23115;SDS011;11727;52.134;5.052;2022-11-15T10:32:40;4.60;;;1.98;;
23115;SDS011;11727;52.134;5.052;2022-11-15T10:35:18;5.07;;;1.77;;
23115;SDS011;11727;52.134;5.052;2022-11-15T10:38:27;8.50;;;1.95;;
23115;SDS011;11727;52.134;5.052;2022-11-15T10:40:45;6.57;;;1.20;;
23115;SDS011;11727;52.134;5.052;2022-11-15T10:45:44;6.45;;;1.98;;
23115;SDS011;11727;52.134;5.052;2022-11-15T10:50:42;7.13;;;1.92;;
23115;SDS011;11727;52.134;5.052;2022-11-15T10:55:53;3.58;;;1.23;;
23115;SDS011;11727;52.134;5.052;2022-11-15T11:01:17;4.30;;;1.33;;
23115;SDS011;11727;52.134;5.052;2022-11-15T11:06:52;8.75;;;1.80;;
23115;SDS011;11727;52.134;5.052;2022-11-15T11:09:23;2.42;;;1.23;;
23115;SDS011;11727;52.134;5.052;2022-11-15T11:11:55;4.43;;;1.20;;
23115;SDS011;11727;52.134;5.052;2022-11-15T11:14:22;3.90;;;1.35;;
23115;SDS011;11727;52.134;5.052;2022-11-15T11:28:59;2.20;;;1.08;;
23115;SDS011;11727;52.134;5.052;2022-11-15T11:51:22;4.90;;;0.75;;
23115;SDS011;11727;52.134;5.052;2022-11-15T11:56:24;1.50;;;0.40;;
23115;SDS011;11727;52.134;5.052;2022-11-15T11:58:59;4.10;;;1.15;;
23115;SDS011;11727;52.134;5.052;2022-11-15T12:01:32;4.15;;;0.40;;
23115;SDS011;11727;52.134;5.052;2022-11-15T12:04:19;2.25;;;0.65;;
23115;SDS011;11727;52.134;5.052;2022-11-15T12:07:10;3.17;;;0.50;;
23115;SDS011;11727;52.134;5.052;2022-11-15T12:09:41;2.78;;;1.00;;
23115;SDS011;11727;52.134;5.052;2022-11-15T12:12:18;1.80;;;0.63;;
23115;SDS011;11727;52.134;5.052;2022-11-15T12:14:57;1.17;;;0.30;;
23115;SDS011;11727;52.134;5.052;2022-11-15T12:17:29;2.25;;;0.60;;
23115;SDS011;11727;52.134;5.052;2022-11-15T12:19:59;2.15;;;0.52;;
23115;SDS011;11727;52.134;5.052;2022-11-15T12:22:33;2.08;;;0.68;;
23115;SDS011;11727;52.134;5.052;2022-11-15T12:25:14;6.15;;;0.85;;
23115;SDS011;11727;52.134;5.052;2022-11-15T12:30:47;1.98;;;0.60;;
23115;SDS011;11727;52.134;5.052;2022-11-15T12:33:28;0.68;;;0.25;;
23115;SDS011;11727;52.134;5.052;2022-11-15T12:36:02;1.08;;;0.30;;
23115;SDS011;11727;52.134;5.052;2022-11-15T12:41:20;3.22;;;0.50;;
23115;SDS011;11727;52.134;5.052;2022-11-15T12:43:50;3.13;;;0.63;;
23115;SDS011;11727;52.134;5.052;2022-11-15T12:48:54;1.65;;;0.50;;
23115;SDS011;11727;52.134;5.052;2022-11-15T12:51:20;4.45;;;0.50;;
23115;SDS011;11727;52.134;5.052;2022-11-15T12:59:47;0.30;;;0.22;;
23115;SDS011;11727;52.134;5.052;2022-11-15T13:02:19;2.67;;;0.80;;
23115;SDS011;11727;52.134;5.052;2022-11-15T13:04:46;1.27;;;0.47;;
23115;SDS011;11727;52.134;5.052;2022-11-15T13:17:45;1.85;;;0.52;;
23115;SDS011;11727;52.134;5.052;2022-11-15T13:20:17;3.72;;;0.93;;
23115;SDS011;11727;52.134;5.052;2022-11-15T13:22:46;0.63;;;0.30;;
23115;SDS011;11727;52.134;5.052;2022-11-15T13:27:47;0.47;;;0.47;;
23115;SDS011;11727;52.134;5.052;2022-11-15T13:30:16;3.20;;;0.73;;
23115;SDS011;11727;52.134;5.052;2022-11-15T13:32:45;2.15;;;0.73;;
23115;SDS011;11727;52.134;5.052;2022-11-15T13:37:49;1.65;;;0.40;;
23115;SDS011;11727;52.134;5.052;2022-11-15T13:42:45;1.73;;;0.30;;
23115;SDS011;11727;52.134;5.052;2022-11-15T13:45:12;2.63;;;0.50;;
23115;SDS011;11727;52.134;5.052;2022-11-15T13:47:40;1.27;;;0.40;;
23115;SDS011;11727;52.134;5.052;2022-11-15T13:50:06;0.57;;;0.20;;
23115;SDS011;11727;52.134;5.052;2022-11-15T13:52:36;3.20;;;0.20;;
23115;SDS011;11727;52.134;5.052;2022-11-15T14:02:55;0.63;;;0.40;;
23115;SDS011;11727;52.134;5.052;2022-11-15T14:05:23;1.37;;;0.50;;
23115;SDS011;11727;52.134;5.052;2022-11-15T14:07:53;1.75;;;0.40;;
23115;SDS011;11727;52.134;5.052;2022-11-15T14:12:56;2.65;;;0.43;;
23115;SDS011;11727;52.134;5.052;2022-11-15T14:17:56;2.85;;;0.70;;
23115;SDS011;11727;52.134;5.052;2022-11-15T14:22:54;10.35;;;0.93;;
23115;SDS011;11727;52.134;5.052;2022-11-15T14:25:22;4.50;;;0.93;;
23115;SDS011;11727;52.134;5.052;2022-11-15T14:30:33;5.43;;;1.10;;
23115;SDS011;11727;52.134;5.052;2022-11-15T14:32:58;3.00;;;0.40;;
23115;SDS011;11727;52.134;5.052;2022-11-15T14:35:24;4.72;;;0.70;;
23115;SDS011;11727;52.134;5.052;2022-11-15T14:37:49;9.57;;;0.88;;
23115;SDS011;11727;52.134;5.052;2022-11-15T14:40:19;6.68;;;0.70;;
23115;SDS011;11727;52.134;5.052;2022-11-15T14:42:47;1.48;;;0.60;;
23115;SDS011;11727;52.134;5.052;2022-11-15T14:47:40;7.20;;;1.23;;
23115;SDS011;11727;52.134;5.052;2022-11-15T14:50:10;7.40;;;0.75;;
23115;SDS011;11727;52.134;5.052;2022-11-15T14:52:43;5.47;;;0.65;;
23115;SDS011;11727;52.134;5.052;2022-11-15T14:57:49;1.92;;;0.70;;
23115;SDS011;11727;52.134;5.052;2022-11-15T15:00:15;3.30;;;1.00;;
23115;SDS011;11727;52.134;5.052;2022-11-15T15:02:42;4.78;;;0.50;;
23115;SDS011;11727;52.134;5.052;2022-11-15T15:07:44;0.63;;;0.40;;
23115;SDS011;11727;52.134;5.052;2022-11-15T15:10:11;2.40;;;0.95;;
23115;SDS011;11727;52.134;5.052;2022-11-15T15:12:38;4.13;;;0.80;;
23115;SDS011;11727;52.134;5.052;2022-11-15T15:15:04;4.47;;;0.57;;
23115;SDS011;11727;52.134;5.052;2022-11-15T15:17:30;1.90;;;0.57;;
23115;SDS011;11727;52.134;5.052;2022-11-15T15:19:56;3.13;;;0.65;;
23115;SDS011;11727;52.134;5.052;2022-11-15T15:22:21;3.28;;;0.77;;
23115;SDS011;11727;52.134;5.052;2022-11-15T15:24:50;2.88;;;1.17;;
23115;SDS011;11727;52.134;5.052;2022-11-15T15:27:16;3.55;;;0.70;;
23115;SDS011;11727;52.134;5.052;2022-11-15T15:29:41;3.03;;;0.43;;
23115;SDS011;11727;52.134;5.052;2022-11-15T15:32:07;0.80;;;0.45;;
23115;SDS011;11727;52.134;5.052;2022-11-15T15:34:34;3.92;;;0.82;;
23115;SDS011;11727;52.134;5.052;2022-11-15T15:37:06;1.65;;;0.50;;
23115;SDS011;11727;52.134;5.052;2022-11-15T15:39:49;0.98;;;0.50;;
23115;SDS011;11727;52.134;5.052;2022-11-15T15:42:19;4.18;;;0.75;;
23115;SDS011;11727;52.134;5.052;2022-11-15T15:44:46;1.45;;;0.50;;
23115;SDS011;11727;52.134;5.052;2022-11-15T15:47:13;0.90;;;0.45;;
23115;SDS011;11727;52.134;5.052;2022-11-15T15:49:41;3.05;;;0.50;;
23115;SDS011;11727;52.134;5.052;2022-11-15T15:52:07;7.75;;;0.63;;
23115;SDS011;11727;52.134;5.052;2022-11-15T15:54:33;3.22;;;0.68;;
23115;SDS011;11727;52.134;5.052;2022-11-15T15:56:58;2.00;;;0.50;;
23115;SDS011;11727;52.134;5.052;2022-11-15T15:59:24;1.95;;;0.60;;
23115;SDS011;11727;52.134;5.052;2022-11-15T16:01:49;3.33;;;0.75;;
23115;SDS011;11727;52.134;5.052;2022-11-15T16:04:15;1.80;;;0.68;;
23115;SDS011;11727;52.134;5.052;2022-11-15T16:06:41;5.72;;;0.88;;
23115;SDS011;11727;52.134;5.052;2022-11-15T16:09:13;3.55;;;0.70;;
23115;SDS011;11727;52.134;5.052;2022-11-15T16:11:40;4.30;;;0.90;;
23115;SDS011;11727;52.134;5.052;2022-11-15T16:14:09;1.13;;;0.40;;
23115;SDS011;11727;52.134;5.052;2022-11-15T16:16:35;2.75;;;0.50;;
23115;SDS011;11727;52.134;5.052;2022-11-15T16:19:02;0.88;;;0.40;;
23115;SDS011;11727;52.134;5.052;2022-11-15T16:21:28;1.35;;;0.60;;
23115;SDS011;11727;52.134;5.052;2022-11-15T16:23:54;0.90;;;0.40;;
23115;SDS011;11727;52.134;5.052;2022-11-15T16:26:26;1.50;;;0.57;;
23115;SDS011;11727;52.134;5.052;2022-11-15T16:28:53;4.53;;;0.57;;
23115;SDS011;11727;52.134;5.052;2022-11-15T16:31:19;1.83;;;1.00;;
23115;SDS011;11727;52.134;5.052;2022-11-15T16:33:47;0.73;;;0.30;;
23115;SDS011;11727;52.134;5.052;2022-11-15T16:36:23;2.88;;;0.60;;
23115;SDS011;11727;52.134;5.052;2022-11-15T16:38:50;1.33;;;0.60;;
23115;SDS011;11727;52.134;5.052;2022-11-15T16:41:16;2.20;;;0.77;;
23115;SDS011;11727;52.134;5.052;2022-11-15T16:43:46;6.00;;;0.53;;
23115;SDS011;11727;52.134;5.052;2022-11-15T16:46:14;1.90;;;0.50;;
23115;SDS011;11727;52.134;5.052;2022-11-15T16:48:50;1.92;;;0.32;;
23115;SDS011;11727;52.134;5.052;2022-11-15T16:51:17;6.70;;;0.90;;
23115;SDS011;11727;52.134;5.052;2022-11-15T16:53:43;1.55;;;0.68;;
23115;SDS011;11727;52.134;5.052;2022-11-15T16:56:14;3.13;;;0.77;;
23115;SDS011;11727;52.134;5.052;2022-11-15T16:58:49;2.47;;;1.20;;
23115;SDS011;11727;52.134;5.052;2022-11-15T17:01:19;1.35;;;0.50;;
23115;SDS011;11727;52.134;5.052;2022-11-15T17:03:47;2.55;;;0.50;;
23115;SDS011;11727;52.134;5.052;2022-11-15T17:06:13;2.20;;;0.57;;